Merrill Field Airport (MRI)

 

Airport Diagram
Current Weather/Forecast (VFR Conditions)
METAR PAMR 100553Z 08005KT 10SM CLR 17/11 A2971 RMK AO2 SLP061 T01670111 10217 20161 53002
TAF

All Charts

Inbound Traffic (Arrivals)

No inbound traffic.


Outbound Traffic (Departures)

No outbound traffic.